createdAt,value
2024-03-03T00:01:36.046Z,100.00
2024-03-03T00:04:02.768Z,100.00
2024-03-03T00:06:29.460Z,100.00
2024-03-03T00:08:56.096Z,100.00
2024-03-03T00:11:23.143Z,100.00
2024-03-03T00:13:49.765Z,100.00
2024-03-03T00:16:16.612Z,100.00
2024-03-03T00:18:43.256Z,100.00
2024-03-03T00:21:15.977Z,100.00
2024-03-03T00:23:43.137Z,100.00
2024-03-03T00:26:09.690Z,100.00
2024-03-03T00:28:36.330Z,100.00
2024-03-03T00:31:02.991Z,100.00
2024-03-03T00:33:29.634Z,100.00
2024-03-03T00:35:56.276Z,100.00
2024-03-03T00:38:22.844Z,100.00
2024-03-03T00:40:49.365Z,100.00
2024-03-03T00:43:16.088Z,100.00
2024-03-03T00:45:42.744Z,100.00
2024-03-03T00:48:09.352Z,100.00
2024-03-03T00:50:36.190Z,100.00
2024-03-03T00:53:02.781Z,100.00
2024-03-03T00:55:29.509Z,100.00
2024-03-03T00:57:56.183Z,100.00
2024-03-03T01:00:22.802Z,100.00
2024-03-03T01:02:49.506Z,100.00
2024-03-03T01:05:16.261Z,100.00
2024-03-03T01:07:43.393Z,100.00
2024-03-03T01:10:10.653Z,100.00
2024-03-03T01:12:37.455Z,100.00
2024-03-03T01:15:04.417Z,100.00
2024-03-03T01:17:31.036Z,100.00
2024-03-03T01:19:57.745Z,100.00
2024-03-03T01:22:24.752Z,100.00
2024-03-03T01:24:51.475Z,100.00
2024-03-03T01:27:18.114Z,100.00
2024-03-03T01:29:44.678Z,100.00
2024-03-03T01:32:11.299Z,100.00
2024-03-03T01:34:37.914Z,100.00
2024-03-03T01:37:04.671Z,100.00
2024-03-03T01:39:31.307Z,100.00
2024-03-03T01:41:57.919Z,100.00
2024-03-03T01:44:24.579Z,100.00
2024-03-03T01:46:51.390Z,100.00
2024-03-03T01:49:18.193Z,100.00
2024-03-03T01:51:46.431Z,100.00
2024-03-03T01:54:13.617Z,100.00
2024-03-03T01:56:43.099Z,100.00
2024-03-03T01:59:10.557Z,100.00
2024-03-03T02:01:38.050Z,100.00
2024-03-03T02:04:06.268Z,100.00
2024-03-03T02:06:35.599Z,100.00
2024-03-03T02:09:02.936Z,100.00
2024-03-03T02:11:30.216Z,100.00
2024-03-03T02:13:56.882Z,100.00
2024-03-03T02:16:23.580Z,100.00
2024-03-03T02:18:50.185Z,100.00
2024-03-03T02:21:24.172Z,100.00
2024-03-03T02:23:51.347Z,100.00
2024-03-03T02:26:21.218Z,100.00
2024-03-03T02:28:49.017Z,100.00
2024-03-03T02:31:15.827Z,100.00
2024-03-03T02:33:42.721Z,100.00
2024-03-03T02:36:09.581Z,100.00
2024-03-03T02:38:36.773Z,100.00
2024-03-03T02:41:03.568Z,100.00
2024-03-03T02:43:30.183Z,100.00
2024-03-03T02:45:56.868Z,100.00
2024-03-03T02:48:23.462Z,100.00
2024-03-03T02:50:50.104Z,100.00
2024-03-03T02:53:16.880Z,100.00
2024-03-03T02:55:43.541Z,100.00
2024-03-03T02:58:10.297Z,100.00
2024-03-03T03:00:37.080Z,100.00
2024-03-03T03:03:03.953Z,100.00
2024-03-03T03:05:30.545Z,100.00
2024-03-03T03:07:57.099Z,100.00
2024-03-03T03:10:23.824Z,100.00
2024-03-03T03:12:50.391Z,100.00
2024-03-03T03:15:17.194Z,100.00
2024-03-03T03:17:43.860Z,100.00
2024-03-03T03:20:11.017Z,100.00
2024-03-03T03:22:37.552Z,100.00
2024-03-03T03:25:04.462Z,100.00
2024-03-03T03:27:31.115Z,100.00
2024-03-03T03:29:58.052Z,100.00
2024-03-03T03:32:24.759Z,100.00
2024-03-03T03:34:51.374Z,100.00
2024-03-03T03:37:18.021Z,100.00
2024-03-03T03:39:44.724Z,100.00
2024-03-03T03:42:11.243Z,100.00
2024-03-03T03:44:37.900Z,100.00
2024-03-03T03:47:04.597Z,100.00
2024-03-03T03:49:31.108Z,100.00
2024-03-03T03:51:57.737Z,100.00
2024-03-03T03:54:24.371Z,100.00
2024-03-03T03:56:50.884Z,100.00
2024-03-03T03:59:17.447Z,100.00
2024-03-03T04:01:44.177Z,100.00
2024-03-03T04:04:10.899Z,100.00
2024-03-03T04:06:37.632Z,100.00
2024-03-03T04:09:04.305Z,100.00
2024-03-03T04:11:30.953Z,100.00
2024-03-03T04:13:57.670Z,100.00
2024-03-03T04:16:24.400Z,100.00
2024-03-03T04:18:51.126Z,100.00
2024-03-03T04:21:17.649Z,100.00
2024-03-03T04:23:44.243Z,100.00
2024-03-03T04:26:10.880Z,100.00
2024-03-03T04:28:37.552Z,100.00
2024-03-03T04:31:07.405Z,100.00
2024-03-03T04:33:34.677Z,100.00
2024-03-03T04:36:01.404Z,100.00
2024-03-03T04:38:28.071Z,100.00
2024-03-03T04:40:54.721Z,100.00
2024-03-03T04:43:21.414Z,100.00
2024-03-03T04:45:47.973Z,100.00
2024-03-03T04:48:14.620Z,100.00
2024-03-03T04:50:41.197Z,100.00
2024-03-03T04:53:07.816Z,100.00
2024-03-03T04:55:34.434Z,100.00
2024-03-03T04:58:01.058Z,100.00
2024-03-03T05:00:27.629Z,100.00
2024-03-03T05:02:54.264Z,100.00
2024-03-03T05:05:20.820Z,100.00
2024-03-03T05:07:47.432Z,100.00
2024-03-03T05:10:14.144Z,100.00
2024-03-03T05:12:40.842Z,100.00
2024-03-03T05:15:08.119Z,100.00
2024-03-03T05:17:34.734Z,100.00
2024-03-03T05:20:01.325Z,100.00
2024-03-03T05:22:27.841Z,100.00
2024-03-03T05:24:54.529Z,100.00
2024-03-03T05:27:21.095Z,100.00
2024-03-03T05:29:47.657Z,100.00
2024-03-03T05:32:14.313Z,100.00
2024-03-03T05:34:40.885Z,100.00
2024-03-03T05:37:07.555Z,100.00
2024-03-03T05:39:34.145Z,100.00
2024-03-03T05:42:00.744Z,100.00
2024-03-03T05:44:27.602Z,100.00
2024-03-03T05:46:54.184Z,100.00
2024-03-03T05:49:20.832Z,100.00
2024-03-03T05:51:47.515Z,100.00
2024-03-03T05:54:14.132Z,100.00
2024-03-03T05:56:40.743Z,100.00
2024-03-03T05:59:07.410Z,100.00
2024-03-03T06:01:34.070Z,100.00
2024-03-03T06:04:00.804Z,100.00
2024-03-03T06:06:27.512Z,100.00
2024-03-03T06:08:54.171Z,100.00
2024-03-03T06:11:20.930Z,100.00
2024-03-03T06:13:47.598Z,100.00
2024-03-03T06:16:14.281Z,100.00
2024-03-03T06:18:41.150Z,100.00
2024-03-03T06:21:07.860Z,100.00
2024-03-03T06:23:34.469Z,100.00
2024-03-03T06:26:01.084Z,100.00
2024-03-03T06:28:27.734Z,100.00
2024-03-03T06:30:54.477Z,100.00
2024-03-03T06:33:21.179Z,100.00
2024-03-03T06:35:47.800Z,100.00
2024-03-03T06:38:14.421Z,100.00
2024-03-03T06:40:41.029Z,100.00
2024-03-03T06:43:07.667Z,100.00
2024-03-03T06:45:34.264Z,100.00
2024-03-03T06:48:00.908Z,100.00
2024-03-03T06:50:27.566Z,100.00
2024-03-03T06:52:54.123Z,100.00
2024-03-03T06:55:20.878Z,100.00
2024-03-03T06:57:47.683Z,100.00
2024-03-03T07:00:14.687Z,100.00
2024-03-03T07:02:42.108Z,100.00
2024-03-03T07:05:08.783Z,100.00
2024-03-03T07:07:35.213Z,100.00
2024-03-03T07:10:01.905Z,100.00
2024-03-03T07:12:28.810Z,100.00
2024-03-03T07:14:55.469Z,100.00
2024-03-03T07:17:22.006Z,100.00
2024-03-03T07:19:48.584Z,100.00
2024-03-03T07:22:15.211Z,100.00
2024-03-03T07:24:41.829Z,100.00
2024-03-03T07:27:08.410Z,100.00
2024-03-03T07:29:35.077Z,100.00
2024-03-03T07:32:01.714Z,100.00
2024-03-03T07:34:28.399Z,100.00
2024-03-03T07:36:55.129Z,100.00
2024-03-03T07:39:21.758Z,100.00
2024-03-03T07:41:48.392Z,100.00
2024-03-03T07:44:15.062Z,100.00
2024-03-03T07:46:41.673Z,100.00
2024-03-03T07:49:08.283Z,100.00
2024-03-03T07:51:34.972Z,100.00
2024-03-03T07:54:01.618Z,100.00
2024-03-03T07:56:28.191Z,100.00
2024-03-03T07:58:54.819Z,100.00
2024-03-03T08:01:21.528Z,100.00
2024-03-03T08:03:48.297Z,100.00
2024-03-03T08:06:14.966Z,100.00
2024-03-03T08:08:41.553Z,100.00
2024-03-03T08:11:08.164Z,100.00
2024-03-03T08:13:34.790Z,100.00
2024-03-03T08:16:01.477Z,100.00
2024-03-03T08:18:28.121Z,100.00
2024-03-03T08:20:54.800Z,100.00
2024-03-03T08:23:21.617Z,100.00
2024-03-03T08:25:48.351Z,100.00
2024-03-03T08:28:14.943Z,100.00
2024-03-03T08:30:41.657Z,100.00
2024-03-03T08:33:08.851Z,100.00
2024-03-03T08:35:35.659Z,100.00
2024-03-03T08:38:02.279Z,100.00
2024-03-03T08:40:29.167Z,100.00
2024-03-03T08:42:55.976Z,100.00
2024-03-03T08:45:22.654Z,100.00
2024-03-03T08:47:49.290Z,100.00
2024-03-03T08:50:16.119Z,100.00
2024-03-03T08:52:42.707Z,100.00
2024-03-03T08:55:09.338Z,100.00
2024-03-03T08:57:35.928Z,100.00
2024-03-03T09:00:02.494Z,100.00
2024-03-03T09:02:29.061Z,100.00
2024-03-03T09:04:55.677Z,100.00
2024-03-03T09:07:22.418Z,100.00
2024-03-03T09:09:49.853Z,100.00
2024-03-03T09:12:16.314Z,100.00
2024-03-03T09:14:42.838Z,100.00
2024-03-03T09:17:09.489Z,100.00
2024-03-03T09:19:36.123Z,98.68
2024-03-03T09:22:03.111Z,97.79
2024-03-03T09:24:29.664Z,97.08
2024-03-03T09:26:56.259Z,98.15
2024-03-03T09:29:25.157Z,97.53
2024-03-03T09:31:55.421Z,96.76
2024-03-03T09:34:22.268Z,97.93
2024-03-03T09:36:49.434Z,96.91
2024-03-03T09:39:16.073Z,97.80
2024-03-03T09:41:44.157Z,96.32
2024-03-03T09:44:12.912Z,97.13
2024-03-03T09:46:40.783Z,98.62
2024-03-03T09:49:12.498Z,97.37
2024-03-03T09:51:42.179Z,95.37
2024-03-03T09:54:12.343Z,96.34
2024-03-03T09:56:42.477Z,96.92
2024-03-03T09:59:12.491Z,95.08
2024-03-03T10:01:39.961Z,94.44
2024-03-03T10:04:10.558Z,95.13
2024-03-03T10:06:42.181Z,97.23
2024-03-03T10:09:10.096Z,95.37
2024-03-03T10:11:37.213Z,95.68
2024-03-03T10:14:04.321Z,95.42
2024-03-03T10:16:34.015Z,95.21
2024-03-03T10:19:02.841Z,94.49
2024-03-03T10:21:33.613Z,93.33
2024-03-03T10:24:23.070Z,93.89
2024-03-03T10:26:50.042Z,94.63
2024-03-03T10:29:27.628Z,96.63
2024-03-03T10:31:55.726Z,94.46
2024-03-03T10:34:22.584Z,95.14
2024-03-03T10:36:49.930Z,93.98
2024-03-03T10:39:16.793Z,95.18
2024-03-03T10:41:43.427Z,94.24
2024-03-03T10:44:10.234Z,93.02
2024-03-03T10:46:38.730Z,92.86
2024-03-03T10:49:05.873Z,92.57
2024-03-03T10:51:32.722Z,94.37
2024-03-03T10:53:59.419Z,94.59
2024-03-03T10:56:27.249Z,93.40
2024-03-03T10:58:54.830Z,92.62
2024-03-03T11:01:22.902Z,93.80
2024-03-03T11:03:51.970Z,94.90
2024-03-03T11:06:18.947Z,93.45
2024-03-03T11:08:45.630Z,92.66
2024-03-03T11:11:14.525Z,92.96
2024-03-03T11:13:51.934Z,92.80
2024-03-03T11:16:19.619Z,93.02
2024-03-03T11:18:50.205Z,92.40
2024-03-03T11:21:27.879Z,93.66
2024-03-03T11:24:19.719Z,92.24
2024-03-03T11:26:49.887Z,94.42
2024-03-03T11:29:17.042Z,93.87
2024-03-03T11:31:44.044Z,91.23
2024-03-03T11:34:11.523Z,90.75
2024-03-03T11:36:39.181Z,91.98
2024-03-03T11:39:16.459Z,90.31
2024-03-03T11:41:45.030Z,89.67
2024-03-03T11:44:36.420Z,90.60
2024-03-03T11:47:04.474Z,91.26
2024-03-03T11:49:32.162Z,90.88
2024-03-03T11:51:59.172Z,90.79
2024-03-03T11:54:33.858Z,91.12
2024-03-03T11:57:00.595Z,89.55
2024-03-03T11:59:37.448Z,91.72
2024-03-03T12:02:05.823Z,90.23
2024-03-03T12:04:32.550Z,89.26
2024-03-03T12:06:59.154Z,89.24
2024-03-03T12:09:25.860Z,88.91
2024-03-03T12:11:54.166Z,91.95
2024-03-03T12:14:20.780Z,87.58
2024-03-03T12:16:47.388Z,89.15
2024-03-03T12:19:15.673Z,89.25
2024-03-03T12:21:43.074Z,89.31
2024-03-03T12:24:09.782Z,87.90
2024-03-03T12:26:36.413Z,88.82
2024-03-03T12:29:03.629Z,89.00
2024-03-03T12:31:33.781Z,86.89
2024-03-03T12:34:00.432Z,87.77
2024-03-03T12:36:28.175Z,88.82
2024-03-03T12:38:54.731Z,88.45
2024-03-03T12:41:21.405Z,89.00
2024-03-03T12:43:48.278Z,87.07
2024-03-03T12:46:14.968Z,87.23
2024-03-03T12:48:44.616Z,89.66
2024-03-03T12:51:12.863Z,88.15
2024-03-03T12:53:41.232Z,87.29
2024-03-03T12:56:19.246Z,89.76
2024-03-03T12:58:45.956Z,86.71
2024-03-03T13:01:12.951Z,86.82
2024-03-03T13:03:40.273Z,87.61
2024-03-03T13:06:15.424Z,87.89
2024-03-03T13:08:43.657Z,88.53
2024-03-03T13:11:11.309Z,89.04
2024-03-03T13:13:41.124Z,88.28
2024-03-03T13:16:11.601Z,88.84
2024-03-03T13:18:38.441Z,88.96
2024-03-03T13:21:17.213Z,88.30
2024-03-03T13:23:43.961Z,89.29
2024-03-03T13:26:10.953Z,89.77
2024-03-03T13:28:39.426Z,88.94
2024-03-03T13:31:07.038Z,89.88
2024-03-03T13:33:35.589Z,89.51
2024-03-03T13:36:03.556Z,90.67
2024-03-03T13:38:31.195Z,89.59
2024-03-03T13:40:58.026Z,89.16
2024-03-03T13:43:25.248Z,90.05
2024-03-03T13:45:51.931Z,89.93
2024-03-03T13:48:18.583Z,90.01
2024-03-03T13:50:45.288Z,90.80
2024-03-03T13:53:12.574Z,90.65
2024-03-03T13:55:39.386Z,91.48
2024-03-03T13:58:06.186Z,89.77
2024-03-03T14:00:33.046Z,90.80
2024-03-03T14:03:03.158Z,90.06
2024-03-03T14:05:31.898Z,90.66
2024-03-03T14:07:58.588Z,90.56
2024-03-03T14:10:27.457Z,90.38
2024-03-03T14:12:54.695Z,90.84
2024-03-03T14:15:21.468Z,90.79
2024-03-03T14:17:48.237Z,91.29
2024-03-03T14:20:14.884Z,91.09
2024-03-03T14:22:41.789Z,90.30
2024-03-03T14:25:08.849Z,90.52
2024-03-03T14:27:35.604Z,91.71
2024-03-03T14:30:02.679Z,91.45
2024-03-03T14:32:29.304Z,92.15
2024-03-03T14:34:55.849Z,93.24
2024-03-03T14:37:22.603Z,91.76
2024-03-03T14:39:49.297Z,91.75
2024-03-03T14:42:15.949Z,92.25
2024-03-03T14:44:42.507Z,90.98
2024-03-03T14:47:09.755Z,92.55
2024-03-03T14:49:37.665Z,91.49
2024-03-03T14:52:04.733Z,91.15
2024-03-03T14:54:31.287Z,91.90
2024-03-03T14:56:58.013Z,91.56
2024-03-03T14:59:25.536Z,91.85
2024-03-03T15:01:52.258Z,92.35
2024-03-03T15:04:20.327Z,92.64
2024-03-03T15:06:47.221Z,91.13
2024-03-03T15:09:13.963Z,92.26
2024-03-03T15:11:40.531Z,91.89
2024-03-03T15:14:07.176Z,91.51
2024-03-03T15:16:33.859Z,92.00
2024-03-03T15:19:00.593Z,91.96
2024-03-03T15:21:27.265Z,92.56
2024-03-03T15:23:53.841Z,92.43
2024-03-03T15:26:20.448Z,93.07
2024-03-03T15:28:47.463Z,92.75
2024-03-03T15:31:14.167Z,93.25
2024-03-03T15:33:40.871Z,92.86
2024-03-03T15:36:07.771Z,93.38
2024-03-03T15:38:34.441Z,93.19
2024-03-03T15:41:01.110Z,92.65
2024-03-03T15:43:29.864Z,92.64
2024-03-03T15:45:56.591Z,92.79
2024-03-03T15:48:23.319Z,92.76
2024-03-03T15:50:49.881Z,93.31
2024-03-03T15:53:16.569Z,93.83
2024-03-03T15:55:43.184Z,94.05
2024-03-03T15:58:09.999Z,94.52
2024-03-03T16:00:36.737Z,94.09
2024-03-03T16:03:05.882Z,94.32
2024-03-03T16:05:33.043Z,94.88
2024-03-03T16:07:59.967Z,93.53
2024-03-03T16:10:26.647Z,93.78
2024-03-03T16:12:53.396Z,93.30
2024-03-03T16:15:20.157Z,93.11
2024-03-03T16:17:46.950Z,92.78
2024-03-03T16:20:13.564Z,92.81
2024-03-03T16:22:42.938Z,92.51
2024-03-03T16:25:09.813Z,92.90
2024-03-03T16:27:36.592Z,92.88
2024-03-03T16:30:03.403Z,93.15
2024-03-03T16:32:31.243Z,93.40
2024-03-03T16:34:57.872Z,93.10
2024-03-03T16:37:24.721Z,92.73
2024-03-03T16:39:51.510Z,93.48
2024-03-03T16:42:18.293Z,93.28
2024-03-03T16:44:44.958Z,93.76
2024-03-03T16:47:11.606Z,94.29
2024-03-03T16:49:38.244Z,94.65
2024-03-03T16:52:05.263Z,93.54
2024-03-03T16:54:32.730Z,93.70
2024-03-03T16:57:00.203Z,94.30
2024-03-03T16:59:26.767Z,94.34
2024-03-03T17:01:53.452Z,94.72
2024-03-03T17:04:20.232Z,94.23
2024-03-03T17:06:46.936Z,95.00
2024-03-03T17:09:13.582Z,95.25
2024-03-03T17:11:40.372Z,95.23
2024-03-03T17:14:07.464Z,95.17
2024-03-03T17:16:34.934Z,95.39
2024-03-03T17:19:01.847Z,95.27
2024-03-03T17:21:28.494Z,95.44
2024-03-03T17:23:55.062Z,95.45
2024-03-03T17:26:21.930Z,94.59
2024-03-03T17:28:49.817Z,94.66
2024-03-03T17:31:16.501Z,94.90
2024-03-03T17:33:43.382Z,94.66
2024-03-03T17:36:10.100Z,94.83
2024-03-03T17:38:36.710Z,94.84
2024-03-03T17:41:03.665Z,95.76
2024-03-03T17:43:30.362Z,95.70
2024-03-03T17:45:57.081Z,95.61
2024-03-03T17:48:23.694Z,95.89
2024-03-03T17:50:50.292Z,95.66
2024-03-03T17:53:16.968Z,95.77
2024-03-03T17:55:43.586Z,96.01
2024-03-03T17:58:10.208Z,95.76
2024-03-03T18:00:36.973Z,96.33
2024-03-03T18:03:03.822Z,96.13
2024-03-03T18:05:30.491Z,96.69
2024-03-03T18:07:57.068Z,96.24
2024-03-03T18:10:23.745Z,96.43
2024-03-03T18:12:50.393Z,96.99
2024-03-03T18:15:17.026Z,97.06
2024-03-03T18:17:43.671Z,96.90
2024-03-03T18:20:10.583Z,97.13
2024-03-03T18:22:38.103Z,97.12
2024-03-03T18:25:05.244Z,96.81
2024-03-03T18:27:32.032Z,96.71
2024-03-03T18:29:58.636Z,96.78
2024-03-03T18:32:25.245Z,96.40
2024-03-03T18:34:51.871Z,96.31
2024-03-03T18:37:18.559Z,97.03
2024-03-03T18:39:45.303Z,96.73
2024-03-03T18:42:11.990Z,96.72
2024-03-03T18:44:38.956Z,97.18
2024-03-03T18:47:05.956Z,96.80
2024-03-03T18:49:32.596Z,97.49
2024-03-03T18:51:59.294Z,98.12
2024-03-03T18:54:26.008Z,98.25
2024-03-03T18:56:52.551Z,98.91
2024-03-03T18:59:19.200Z,98.58
2024-03-03T19:01:45.962Z,98.28
2024-03-03T19:04:12.734Z,98.78
2024-03-03T19:06:39.325Z,98.78
2024-03-03T19:09:05.952Z,98.64
2024-03-03T19:11:32.622Z,98.71
2024-03-03T19:13:59.198Z,98.26
2024-03-03T19:16:25.900Z,98.48
2024-03-03T19:18:52.837Z,99.23
2024-03-03T19:21:19.420Z,99.19
2024-03-03T19:23:45.974Z,99.03
2024-03-03T19:26:12.661Z,99.31
2024-03-03T19:28:39.431Z,99.23
2024-03-03T19:31:06.188Z,99.27
2024-03-03T19:33:32.872Z,99.33
2024-03-03T19:35:59.635Z,99.39
2024-03-03T19:38:26.386Z,98.94
2024-03-03T19:40:53.089Z,98.96
2024-03-03T19:43:19.785Z,99.47
2024-03-03T19:45:46.452Z,99.18
2024-03-03T19:48:13.143Z,99.21
2024-03-03T19:50:39.827Z,99.16
2024-03-03T19:53:06.401Z,99.78
2024-03-03T19:55:33.029Z,99.13
2024-03-03T19:57:59.754Z,99.43
2024-03-03T20:00:26.575Z,99.89
2024-03-03T20:02:53.204Z,99.86
2024-03-03T20:05:20.007Z,99.40
2024-03-03T20:07:46.632Z,99.41
2024-03-03T20:10:13.400Z,99.98
2024-03-03T20:12:40.056Z,99.51
2024-03-03T20:15:10.454Z,98.85
2024-03-03T20:17:37.403Z,99.37
2024-03-03T20:20:04.491Z,99.56
2024-03-03T20:22:31.179Z,99.84
2024-03-03T20:24:57.858Z,98.94
2024-03-03T20:27:24.503Z,99.51
2024-03-03T20:29:52.553Z,99.99
2024-03-03T20:32:19.366Z,99.88
2024-03-03T20:34:47.160Z,100.00
2024-03-03T20:37:13.956Z,100.00
2024-03-03T20:39:40.617Z,100.00
2024-03-03T20:42:07.227Z,100.00
2024-03-03T20:44:33.864Z,100.00
2024-03-03T20:47:00.619Z,100.00
2024-03-03T20:49:27.212Z,99.64
2024-03-03T20:51:53.906Z,100.00
2024-03-03T20:54:20.655Z,100.00
2024-03-03T20:56:47.285Z,100.00
2024-03-03T20:59:14.261Z,100.00
2024-03-03T21:01:40.954Z,100.00
2024-03-03T21:04:09.166Z,100.00
2024-03-03T21:06:35.800Z,100.00
2024-03-03T21:09:02.370Z,100.00
2024-03-03T21:11:29.035Z,100.00
2024-03-03T21:13:55.697Z,100.00
2024-03-03T21:16:22.318Z,100.00
2024-03-03T21:18:48.966Z,100.00
2024-03-03T21:21:15.647Z,99.95
2024-03-03T21:23:42.221Z,100.00
2024-03-03T21:26:08.905Z,100.00
2024-03-03T21:28:35.654Z,100.00
2024-03-03T21:31:02.378Z,100.00
2024-03-03T21:33:29.109Z,100.00
2024-03-03T21:35:55.726Z,100.00
2024-03-03T21:38:22.301Z,100.00
2024-03-03T21:40:48.893Z,100.00
2024-03-03T21:43:15.531Z,100.00
2024-03-03T21:45:42.577Z,100.00
2024-03-03T21:48:09.410Z,100.00
2024-03-03T21:50:36.156Z,100.00
2024-03-03T21:53:02.761Z,100.00
2024-03-03T21:55:29.448Z,100.00
2024-03-03T21:57:56.394Z,100.00
2024-03-03T22:00:23.355Z,100.00
2024-03-03T22:02:50.399Z,100.00
2024-03-03T22:05:17.088Z,100.00
2024-03-03T22:07:43.864Z,100.00
2024-03-03T22:10:10.915Z,100.00
2024-03-03T22:12:37.621Z,100.00
2024-03-03T22:15:04.642Z,100.00
2024-03-03T22:17:31.238Z,100.00
2024-03-03T22:19:57.880Z,100.00
2024-03-03T22:22:24.532Z,100.00
2024-03-03T22:24:51.207Z,100.00
2024-03-03T22:27:17.857Z,100.00
2024-03-03T22:29:44.549Z,100.00
2024-03-03T22:32:11.156Z,100.00
2024-03-03T22:34:37.810Z,100.00
2024-03-03T22:37:04.580Z,100.00
2024-03-03T22:39:31.191Z,100.00
2024-03-03T22:41:57.828Z,100.00
2024-03-03T22:44:24.499Z,100.00
2024-03-03T22:46:53.961Z,100.00
2024-03-03T22:49:21.911Z,100.00
2024-03-03T22:51:48.594Z,100.00
2024-03-03T22:54:15.294Z,100.00
2024-03-03T22:56:41.892Z,100.00
2024-03-03T22:59:08.640Z,100.00
2024-03-03T23:01:35.353Z,100.00
2024-03-03T23:04:01.978Z,100.00
2024-03-03T23:06:28.634Z,100.00
2024-03-03T23:08:55.213Z,100.00
2024-03-03T23:11:23.247Z,100.00
2024-03-03T23:13:50.207Z,100.00
2024-03-03T23:16:16.924Z,100.00
2024-03-03T23:18:43.830Z,100.00
2024-03-03T23:21:12.397Z,100.00
2024-03-03T23:23:42.015Z,100.00
2024-03-03T23:26:08.698Z,100.00
2024-03-03T23:28:35.606Z,100.00
2024-03-03T23:31:02.624Z,100.00
2024-03-03T23:33:29.384Z,100.00
2024-03-03T23:35:56.086Z,100.00
2024-03-03T23:38:22.869Z,100.00
2024-03-03T23:40:49.921Z,100.00
2024-03-03T23:43:16.567Z,100.00
2024-03-03T23:45:43.322Z,100.00
2024-03-03T23:48:10.042Z,100.00
2024-03-03T23:50:36.656Z,100.00
2024-03-03T23:53:03.348Z,100.00
2024-03-03T23:55:30.039Z,100.00
2024-03-03T23:57:56.694Z,100.00
